sensor_id;sensor_type;location;lat;lon;timestamp;P1;durP1;ratioP1;P2;durP2;ratioP2
32790;SDS011;19143;59.322;14.502;2024-02-23T00:01:47;13.37;;;7.47;;
32790;SDS011;19143;59.322;14.502;2024-02-23T00:04:13;10.40;;;5.37;;
32790;SDS011;19143;59.322;14.502;2024-02-23T00:06:40;21.17;;;8.83;;
32790;SDS011;19143;59.322;14.502;2024-02-23T00:09:06;13.63;;;5.80;;
32790;SDS011;19143;59.322;14.502;2024-02-23T00:11:34;21.97;;;9.10;;
32790;SDS011;19143;59.322;14.502;2024-02-23T00:14:04;15.53;;;7.73;;
32790;SDS011;19143;59.322;14.502;2024-02-23T00:16:31;20.27;;;8.90;;
32790;SDS011;19143;59.322;14.502;2024-02-23T00:18:57;4.63;;;3.70;;
32790;SDS011;19143;59.322;14.502;2024-02-23T00:21:24;34.80;;;9.30;;
32790;SDS011;19143;59.322;14.502;2024-02-23T00:23:50;15.33;;;7.23;;
32790;SDS011;19143;59.322;14.502;2024-02-23T00:26:16;22.57;;;9.17;;
32790;SDS011;19143;59.322;14.502;2024-02-23T00:28:44;18.63;;;8.83;;
32790;SDS011;19143;59.322;14.502;2024-02-23T00:31:11;21.83;;;9.40;;
32790;SDS011;19143;59.322;14.502;2024-02-23T00:33:37;19.30;;;9.40;;
32790;SDS011;19143;59.322;14.502;2024-02-23T00:36:07;12.13;;;6.33;;
32790;SDS011;19143;59.322;14.502;2024-02-23T00:38:33;15.43;;;7.77;;
32790;SDS011;19143;59.322;14.502;2024-02-23T00:41:00;18.13;;;9.10;;
32790;SDS011;19143;59.322;14.502;2024-02-23T00:43:26;24.23;;;9.83;;
32790;SDS011;19143;59.322;14.502;2024-02-23T00:45:55;18.73;;;7.40;;
32790;SDS011;19143;59.322;14.502;2024-02-23T00:48:22;22.93;;;9.47;;
32790;SDS011;19143;59.322;14.502;2024-02-23T00:50:48;22.63;;;10.30;;
32790;SDS011;19143;59.322;14.502;2024-02-23T00:53:14;20.43;;;7.83;;
32790;SDS011;19143;59.322;14.502;2024-02-23T00:55:42;21.50;;;10.37;;
32790;SDS011;19143;59.322;14.502;2024-02-23T00:58:09;24.77;;;9.97;;
32790;SDS011;19143;59.322;14.502;2024-02-23T01:00:35;26.33;;;10.90;;
32790;SDS011;19143;59.322;14.502;2024-02-23T01:03:03;15.00;;;8.43;;
32790;SDS011;19143;59.322;14.502;2024-02-23T01:05:30;25.30;;;9.63;;
32790;SDS011;19143;59.322;14.502;2024-02-23T01:07:56;22.53;;;10.23;;
32790;SDS011;19143;59.322;14.502;2024-02-23T01:10:23;25.57;;;10.40;;
32790;SDS011;19143;59.322;14.502;2024-02-23T01:12:50;23.83;;;10.10;;
32790;SDS011;19143;59.322;14.502;2024-02-23T01:15:16;23.30;;;10.53;;
32790;SDS011;19143;59.322;14.502;2024-02-23T01:17:43;12.93;;;7.27;;
32790;SDS011;19143;59.322;14.502;2024-02-23T01:20:11;17.47;;;9.00;;
32790;SDS011;19143;59.322;14.502;2024-02-23T01:22:38;14.67;;;8.67;;
32790;SDS011;19143;59.322;14.502;2024-02-23T01:25:05;18.00;;;8.07;;
32790;SDS011;19143;59.322;14.502;2024-02-23T01:27:31;16.40;;;8.07;;
32790;SDS011;19143;59.322;14.502;2024-02-23T01:29:58;17.27;;;7.20;;
32790;SDS011;19143;59.322;14.502;2024-02-23T01:32:24;19.27;;;9.40;;
32790;SDS011;19143;59.322;14.502;2024-02-23T01:34:51;15.03;;;8.30;;
32790;SDS011;19143;59.322;14.502;2024-02-23T01:37:18;18.10;;;9.30;;
32790;SDS011;19143;59.322;14.502;2024-02-23T01:39:45;19.93;;;9.33;;
32790;SDS011;19143;59.322;14.502;2024-02-23T01:42:11;18.20;;;9.00;;
32790;SDS011;19143;59.322;14.502;2024-02-23T01:44:38;19.57;;;9.47;;
32790;SDS011;19143;59.322;14.502;2024-02-23T01:47:05;20.43;;;9.37;;
32790;SDS011;19143;59.322;14.502;2024-02-23T01:49:31;18.70;;;8.87;;
32790;SDS011;19143;59.322;14.502;2024-02-23T01:51:59;14.67;;;7.23;;
32790;SDS011;19143;59.322;14.502;2024-02-23T01:54:27;17.87;;;9.00;;
32790;SDS011;19143;59.322;14.502;2024-02-23T01:56:54;18.73;;;8.90;;
32790;SDS011;19143;59.322;14.502;2024-02-23T01:59:21;17.47;;;9.43;;
32790;SDS011;19143;59.322;14.502;2024-02-23T02:01:48;20.27;;;9.33;;
32790;SDS011;19143;59.322;14.502;2024-02-23T02:04:15;21.13;;;8.73;;
32790;SDS011;19143;59.322;14.502;2024-02-23T02:06:41;26.27;;;9.97;;
32790;SDS011;19143;59.322;14.502;2024-02-23T02:09:08;32.43;;;8.70;;
32790;SDS011;19143;59.322;14.502;2024-02-23T02:11:44;30.03;;;9.37;;
32790;SDS011;19143;59.322;14.502;2024-02-23T02:14:10;15.00;;;7.87;;
32790;SDS011;19143;59.322;14.502;2024-02-23T02:16:37;19.03;;;8.93;;
32790;SDS011;19143;59.322;14.502;2024-02-23T02:19:03;21.27;;;8.53;;
32790;SDS011;19143;59.322;14.502;2024-02-23T02:21:30;19.37;;;8.73;;
32790;SDS011;19143;59.322;14.502;2024-02-23T02:23:56;19.57;;;8.43;;
32790;SDS011;19143;59.322;14.502;2024-02-23T02:26:23;17.93;;;7.97;;
32790;SDS011;19143;59.322;14.502;2024-02-23T02:28:51;17.50;;;8.87;;
32790;SDS011;19143;59.322;14.502;2024-02-23T02:31:18;18.60;;;8.80;;
32790;SDS011;19143;59.322;14.502;2024-02-23T02:33:44;15.00;;;7.83;;
32790;SDS011;19143;59.322;14.502;2024-02-23T02:36:10;15.57;;;8.27;;
32790;SDS011;19143;59.322;14.502;2024-02-23T02:38:37;18.30;;;8.93;;
32790;SDS011;19143;59.322;14.502;2024-02-23T02:41:06;16.90;;;9.00;;
32790;SDS011;19143;59.322;14.502;2024-02-23T02:43:32;17.03;;;9.13;;
32790;SDS011;19143;59.322;14.502;2024-02-23T02:46:00;17.53;;;7.90;;
32790;SDS011;19143;59.322;14.502;2024-02-23T02:48:27;14.60;;;8.03;;
32790;SDS011;19143;59.322;14.502;2024-02-23T02:50:53;15.87;;;7.63;;
32790;SDS011;19143;59.322;14.502;2024-02-23T02:53:20;15.53;;;8.53;;
32790;SDS011;19143;59.322;14.502;2024-02-23T02:55:46;12.73;;;6.70;;
32790;SDS011;19143;59.322;14.502;2024-02-23T02:58:13;15.50;;;7.40;;
32790;SDS011;19143;59.322;14.502;2024-02-23T03:00:42;16.83;;;8.00;;
32790;SDS011;19143;59.322;14.502;2024-02-23T03:03:10;16.67;;;8.33;;
32790;SDS011;19143;59.322;14.502;2024-02-23T03:05:38;10.67;;;5.90;;
32790;SDS011;19143;59.322;14.502;2024-02-23T03:08:04;13.57;;;6.87;;
32790;SDS011;19143;59.322;14.502;2024-02-23T03:10:31;15.80;;;8.07;;
32790;SDS011;19143;59.322;14.502;2024-02-23T03:13:00;17.10;;;8.73;;
32790;SDS011;19143;59.322;14.502;2024-02-23T03:15:27;13.73;;;7.13;;
32790;SDS011;19143;59.322;14.502;2024-02-23T03:17:55;14.40;;;7.90;;
32790;SDS011;19143;59.322;14.502;2024-02-23T03:20:23;9.53;;;5.60;;
32790;SDS011;19143;59.322;14.502;2024-02-23T03:22:50;17.47;;;8.33;;
32790;SDS011;19143;59.322;14.502;2024-02-23T03:25:16;15.50;;;8.67;;
32790;SDS011;19143;59.322;14.502;2024-02-23T03:27:43;13.73;;;7.87;;
32790;SDS011;19143;59.322;14.502;2024-02-23T03:30:10;16.70;;;8.93;;
32790;SDS011;19143;59.322;14.502;2024-02-23T03:32:36;12.90;;;7.23;;
32790;SDS011;19143;59.322;14.502;2024-02-23T03:35:04;14.73;;;8.30;;
32790;SDS011;19143;59.322;14.502;2024-02-23T03:37:32;16.50;;;7.63;;
32790;SDS011;19143;59.322;14.502;2024-02-23T03:39:59;11.87;;;6.33;;
32790;SDS011;19143;59.322;14.502;2024-02-23T03:42:26;14.03;;;7.87;;
32790;SDS011;19143;59.322;14.502;2024-02-23T03:44:52;14.20;;;7.70;;
32790;SDS011;19143;59.322;14.502;2024-02-23T03:47:19;15.33;;;8.63;;
32790;SDS011;19143;59.322;14.502;2024-02-23T03:49:45;10.60;;;6.40;;
32790;SDS011;19143;59.322;14.502;2024-02-23T03:52:11;14.40;;;8.13;;
32790;SDS011;19143;59.322;14.502;2024-02-23T03:54:39;15.00;;;7.90;;
32790;SDS011;19143;59.322;14.502;2024-02-23T03:57:06;18.07;;;8.10;;
32790;SDS011;19143;59.322;14.502;2024-02-23T03:59:32;12.53;;;7.53;;
32790;SDS011;19143;59.322;14.502;2024-02-23T04:01:59;13.27;;;7.37;;
32790;SDS011;19143;59.322;14.502;2024-02-23T04:04:25;14.70;;;7.90;;
32790;SDS011;19143;59.322;14.502;2024-02-23T04:06:51;11.63;;;5.10;;
32790;SDS011;19143;59.322;14.502;2024-02-23T04:09:18;18.20;;;8.53;;
32790;SDS011;19143;59.322;14.502;2024-02-23T04:11:48;7.43;;;4.57;;
32790;SDS011;19143;59.322;14.502;2024-02-23T04:14:14;5.90;;;3.50;;
32790;SDS011;19143;59.322;14.502;2024-02-23T04:16:41;16.90;;;7.83;;
32790;SDS011;19143;59.322;14.502;2024-02-23T04:19:07;11.03;;;6.40;;
32790;SDS011;19143;59.322;14.502;2024-02-23T04:21:34;9.23;;;4.97;;
32790;SDS011;19143;59.322;14.502;2024-02-23T04:24:00;18.77;;;7.93;;
32790;SDS011;19143;59.322;14.502;2024-02-23T04:26:26;13.27;;;7.17;;
32790;SDS011;19143;59.322;14.502;2024-02-23T04:28:54;10.07;;;5.90;;
32790;SDS011;19143;59.322;14.502;2024-02-23T04:31:21;15.37;;;7.73;;
32790;SDS011;19143;59.322;14.502;2024-02-23T04:33:47;18.27;;;8.50;;
32790;SDS011;19143;59.322;14.502;2024-02-23T04:36:13;13.73;;;5.17;;
32790;SDS011;19143;59.322;14.502;2024-02-23T04:38:41;17.30;;;7.47;;
32790;SDS011;19143;59.322;14.502;2024-02-23T04:41:07;10.77;;;5.93;;
32790;SDS011;19143;59.322;14.502;2024-02-23T04:43:34;12.80;;;6.83;;
32790;SDS011;19143;59.322;14.502;2024-02-23T04:46:02;8.70;;;5.40;;
32790;SDS011;19143;59.322;14.502;2024-02-23T04:48:28;14.70;;;7.60;;
32790;SDS011;19143;59.322;14.502;2024-02-23T04:50:56;9.97;;;4.97;;
32790;SDS011;19143;59.322;14.502;2024-02-23T04:53:22;6.07;;;4.20;;
32790;SDS011;19143;59.322;14.502;2024-02-23T04:55:48;9.17;;;3.37;;
32790;SDS011;19143;59.322;14.502;2024-02-23T04:58:15;6.90;;;4.40;;
32790;SDS011;19143;59.322;14.502;2024-02-23T05:00:42;8.03;;;5.20;;
32790;SDS011;19143;59.322;14.502;2024-02-23T05:03:10;4.70;;;3.30;;
32790;SDS011;19143;59.322;14.502;2024-02-23T05:05:36;3.80;;;2.97;;
32790;SDS011;19143;59.322;14.502;2024-02-23T05:08:03;5.03;;;3.77;;
32790;SDS011;19143;59.322;14.502;2024-02-23T05:10:29;3.40;;;3.07;;
32790;SDS011;19143;59.322;14.502;2024-02-23T05:12:56;4.13;;;3.70;;
32790;SDS011;19143;59.322;14.502;2024-02-23T05:15:22;4.67;;;3.40;;
32790;SDS011;19143;59.322;14.502;2024-02-23T05:17:49;3.90;;;3.33;;
32790;SDS011;19143;59.322;14.502;2024-02-23T05:20:16;3.17;;;2.87;;
32790;SDS011;19143;59.322;14.502;2024-02-23T05:22:43;3.03;;;2.03;;
32790;SDS011;19143;59.322;14.502;2024-02-23T05:25:09;3.23;;;2.93;;
32790;SDS011;19143;59.322;14.502;2024-02-23T05:27:36;3.03;;;2.83;;
32790;SDS011;19143;59.322;14.502;2024-02-23T05:30:03;2.40;;;1.67;;
32790;SDS011;19143;59.322;14.502;2024-02-23T05:32:29;1.80;;;1.70;;
32790;SDS011;19143;59.322;14.502;2024-02-23T05:34:56;1.77;;;1.67;;
32790;SDS011;19143;59.322;14.502;2024-02-23T05:37:24;2.43;;;2.30;;
32790;SDS011;19143;59.322;14.502;2024-02-23T05:39:52;1.87;;;1.50;;
32790;SDS011;19143;59.322;14.502;2024-02-23T05:42:18;1.70;;;1.60;;
32790;SDS011;19143;59.322;14.502;2024-02-23T05:44:45;2.63;;;2.03;;
32790;SDS011;19143;59.322;14.502;2024-02-23T05:47:13;2.37;;;2.03;;
32790;SDS011;19143;59.322;14.502;2024-02-23T05:49:39;3.27;;;2.47;;
32790;SDS011;19143;59.322;14.502;2024-02-23T05:52:06;2.87;;;2.17;;
32790;SDS011;19143;59.322;14.502;2024-02-23T05:54:34;1.53;;;1.53;;
32790;SDS011;19143;59.322;14.502;2024-02-23T05:57:00;3.23;;;2.10;;
32790;SDS011;19143;59.322;14.502;2024-02-23T05:59:27;2.23;;;2.07;;
32790;SDS011;19143;59.322;14.502;2024-02-23T06:01:54;2.37;;;1.90;;
32790;SDS011;19143;59.322;14.502;2024-02-23T06:04:22;1.83;;;1.73;;
32790;SDS011;19143;59.322;14.502;2024-02-23T06:06:48;1.47;;;1.47;;
32790;SDS011;19143;59.322;14.502;2024-02-23T06:09:14;1.30;;;1.23;;
32790;SDS011;19143;59.322;14.502;2024-02-23T06:11:42;1.30;;;0.90;;
32790;SDS011;19143;59.322;14.502;2024-02-23T06:14:09;2.00;;;1.90;;
32790;SDS011;19143;59.322;14.502;2024-02-23T06:16:36;1.87;;;1.50;;
32790;SDS011;19143;59.322;14.502;2024-02-23T06:19:02;1.10;;;1.10;;
32790;SDS011;19143;59.322;14.502;2024-02-23T06:21:29;1.40;;;1.30;;
32790;SDS011;19143;59.322;14.502;2024-02-23T06:23:55;1.67;;;1.67;;
32790;SDS011;19143;59.322;14.502;2024-02-23T06:26:22;0.93;;;0.93;;
32790;SDS011;19143;59.322;14.502;2024-02-23T06:28:50;0.90;;;0.90;;
32790;SDS011;19143;59.322;14.502;2024-02-23T06:31:16;1.00;;;1.00;;
32790;SDS011;19143;59.322;14.502;2024-02-23T06:33:42;1.23;;;1.13;;
32790;SDS011;19143;59.322;14.502;2024-02-23T06:36:13;2.10;;;1.30;;
32790;SDS011;19143;59.322;14.502;2024-02-23T06:38:41;0.93;;;0.93;;
32790;SDS011;19143;59.322;14.502;2024-02-23T06:41:07;2.53;;;1.27;;
32790;SDS011;19143;59.322;14.502;2024-02-23T06:43:35;1.60;;;1.43;;
32790;SDS011;19143;59.322;14.502;2024-02-23T06:46:05;0.63;;;0.63;;
32790;SDS011;19143;59.322;14.502;2024-02-23T06:48:32;1.50;;;1.40;;
32790;SDS011;19143;59.322;14.502;2024-02-23T06:50:59;1.00;;;1.00;;
32790;SDS011;19143;59.322;14.502;2024-02-23T06:53:25;1.30;;;1.20;;
32790;SDS011;19143;59.322;14.502;2024-02-23T06:55:52;1.20;;;1.20;;
32790;SDS011;19143;59.322;14.502;2024-02-23T06:58:19;1.47;;;1.37;;
32790;SDS011;19143;59.322;14.502;2024-02-23T07:00:45;1.20;;;1.20;;
32790;SDS011;19143;59.322;14.502;2024-02-23T07:03:14;1.10;;;1.10;;
32790;SDS011;19143;59.322;14.502;2024-02-23T07:05:41;1.10;;;1.10;;
32790;SDS011;19143;59.322;14.502;2024-02-23T07:08:08;1.10;;;1.10;;
32790;SDS011;19143;59.322;14.502;2024-02-23T07:10:34;0.97;;;0.97;;
32790;SDS011;19143;59.322;14.502;2024-02-23T07:13:01;1.13;;;1.13;;
32790;SDS011;19143;59.322;14.502;2024-02-23T07:15:27;1.30;;;1.20;;
32790;SDS011;19143;59.322;14.502;2024-02-23T07:17:55;1.30;;;1.30;;
32790;SDS011;19143;59.322;14.502;2024-02-23T07:20:23;1.33;;;1.33;;
32790;SDS011;19143;59.322;14.502;2024-02-23T07:22:49;1.50;;;1.40;;
32790;SDS011;19143;59.322;14.502;2024-02-23T07:25:16;1.40;;;1.40;;
32790;SDS011;19143;59.322;14.502;2024-02-23T07:27:43;2.70;;;1.37;;
32790;SDS011;19143;59.322;14.502;2024-02-23T07:30:10;0.97;;;0.87;;
32790;SDS011;19143;59.322;14.502;2024-02-23T07:32:36;1.10;;;1.10;;
32790;SDS011;19143;59.322;14.502;2024-02-23T07:35:03;1.00;;;1.00;;
32790;SDS011;19143;59.322;14.502;2024-02-23T07:37:31;1.20;;;1.10;;
32790;SDS011;19143;59.322;14.502;2024-02-23T07:39:57;0.90;;;0.90;;
32790;SDS011;19143;59.322;14.502;2024-02-23T07:42:24;0.70;;;0.70;;
32790;SDS011;19143;59.322;14.502;2024-02-23T07:44:50;0.97;;;0.97;;
32790;SDS011;19143;59.322;14.502;2024-02-23T07:47:17;1.63;;;0.90;;
32790;SDS011;19143;59.322;14.502;2024-02-23T07:49:43;0.80;;;0.80;;
32790;SDS011;19143;59.322;14.502;2024-02-23T07:52:09;0.50;;;0.50;;
32790;SDS011;19143;59.322;14.502;2024-02-23T07:54:37;0.60;;;0.60;;
32790;SDS011;19143;59.322;14.502;2024-02-23T07:57:04;0.70;;;0.70;;
32790;SDS011;19143;59.322;14.502;2024-02-23T07:59:30;0.30;;;0.30;;
32790;SDS011;19143;59.322;14.502;2024-02-23T08:01:58;0.63;;;0.60;;
32790;SDS011;19143;59.322;14.502;2024-02-23T08:04:24;1.60;;;0.60;;
32790;SDS011;19143;59.322;14.502;2024-02-23T08:06:50;0.13;;;0.13;;
32790;SDS011;19143;59.322;14.502;2024-02-23T08:09:17;0.40;;;0.40;;
32790;SDS011;19143;59.322;14.502;2024-02-23T08:11:45;0.20;;;0.20;;
32790;SDS011;19143;59.322;14.502;2024-02-23T08:14:11;0.30;;;0.30;;
32790;SDS011;19143;59.322;14.502;2024-02-23T08:16:38;2.37;;;0.40;;
32790;SDS011;19143;59.322;14.502;2024-02-23T08:19:04;1.60;;;0.40;;
32790;SDS011;19143;59.322;14.502;2024-02-23T08:21:31;0.50;;;0.40;;
32790;SDS011;19143;59.322;14.502;2024-02-23T08:23:57;0.37;;;0.37;;
32790;SDS011;19143;59.322;14.502;2024-02-23T08:26:23;0.73;;;0.50;;
32790;SDS011;19143;59.322;14.502;2024-02-23T08:28:51;1.90;;;0.40;;
32790;SDS011;19143;59.322;14.502;2024-02-23T08:31:18;0.57;;;0.47;;
32790;SDS011;19143;59.322;14.502;2024-02-23T08:33:44;0.50;;;0.50;;
32790;SDS011;19143;59.322;14.502;2024-02-23T08:36:12;0.80;;;0.47;;
32790;SDS011;19143;59.322;14.502;2024-02-23T08:38:38;0.90;;;0.57;;
32790;SDS011;19143;59.322;14.502;2024-02-23T08:41:04;1.07;;;0.40;;
32790;SDS011;19143;59.322;14.502;2024-02-23T08:43:31;5.10;;;0.67;;
32790;SDS011;19143;59.322;14.502;2024-02-23T08:45:59;0.82;;;0.45;;
32790;SDS011;19143;59.322;14.502;2024-02-23T08:48:25;0.60;;;0.33;;
32790;SDS011;19143;59.322;14.502;2024-02-23T08:50:52;1.50;;;0.50;;
32790;SDS011;19143;59.322;14.502;2024-02-23T08:53:18;1.73;;;0.67;;
32790;SDS011;19143;59.322;14.502;2024-02-23T08:55:45;1.83;;;0.70;;
32790;SDS011;19143;59.322;14.502;2024-02-23T08:58:11;4.23;;;0.37;;
32790;SDS011;19143;59.322;14.502;2024-02-23T09:00:37;1.07;;;0.30;;
32790;SDS011;19143;59.322;14.502;2024-02-23T09:03:05;0.37;;;0.37;;
32790;SDS011;19143;59.322;14.502;2024-02-23T09:05:32;2.73;;;0.80;;
32790;SDS011;19143;59.322;14.502;2024-02-23T09:07:58;1.13;;;0.37;;
32790;SDS011;19143;59.322;14.502;2024-02-23T09:10:25;1.17;;;0.60;;
32790;SDS011;19143;59.322;14.502;2024-02-23T09:12:51;1.47;;;0.50;;
32790;SDS011;19143;59.322;14.502;2024-02-23T09:15:17;1.70;;;0.50;;
32790;SDS011;19143;59.322;14.502;2024-02-23T09:17:44;7.37;;;1.37;;
32790;SDS011;19143;59.322;14.502;2024-02-23T09:20:12;1.43;;;0.40;;
32790;SDS011;19143;59.322;14.502;2024-02-23T09:22:39;0.37;;;0.37;;
32790;SDS011;19143;59.322;14.502;2024-02-23T09:25:06;4.03;;;0.60;;
32790;SDS011;19143;59.322;14.502;2024-02-23T09:27:33;2.67;;;0.60;;
32790;SDS011;19143;59.322;14.502;2024-02-23T09:30:01;1.53;;;0.50;;
32790;SDS011;19143;59.322;14.502;2024-02-23T09:32:29;1.33;;;0.70;;
32790;SDS011;19143;59.322;14.502;2024-02-23T09:34:55;0.47;;;0.47;;
32790;SDS011;19143;59.322;14.502;2024-02-23T09:37:23;2.63;;;0.67;;
32790;SDS011;19143;59.322;14.502;2024-02-23T09:39:49;1.67;;;0.60;;
32790;SDS011;19143;59.322;14.502;2024-02-23T09:42:16;2.73;;;0.70;;
32790;SDS011;19143;59.322;14.502;2024-02-23T09:44:43;3.10;;;0.90;;
32790;SDS011;19143;59.322;14.502;2024-02-23T09:47:10;2.67;;;0.70;;
32790;SDS011;19143;59.322;14.502;2024-02-23T09:49:38;3.23;;;0.80;;
32790;SDS011;19143;59.322;14.502;2024-02-23T09:52:07;1.70;;;0.70;;
32790;SDS011;19143;59.322;14.502;2024-02-23T09:54:34;3.50;;;0.87;;
32790;SDS011;19143;59.322;14.502;2024-02-23T09:57:01;2.17;;;0.90;;
32790;SDS011;19143;59.322;14.502;2024-02-23T09:59:29;2.80;;;0.70;;
32790;SDS011;19143;59.322;14.502;2024-02-23T10:01:56;0.77;;;0.60;;
32790;SDS011;19143;59.322;14.502;2024-02-23T10:04:23;1.07;;;0.73;;
32790;SDS011;19143;59.322;14.502;2024-02-23T10:06:51;3.70;;;1.00;;
32790;SDS011;19143;59.322;14.502;2024-02-23T10:09:17;1.90;;;0.80;;
32790;SDS011;19143;59.322;14.502;2024-02-23T10:11:46;3.80;;;0.73;;
32790;SDS011;19143;59.322;14.502;2024-02-23T10:14:17;1.77;;;0.60;;
32790;SDS011;19143;59.322;14.502;2024-02-23T10:16:44;1.73;;;0.83;;
32790;SDS011;19143;59.322;14.502;2024-02-23T10:19:10;6.17;;;0.90;;
32790;SDS011;19143;59.322;14.502;2024-02-23T10:21:37;4.70;;;1.20;;
32790;SDS011;19143;59.322;14.502;2024-02-23T10:24:04;2.47;;;1.03;;
32790;SDS011;19143;59.322;14.502;2024-02-23T10:26:31;7.00;;;1.00;;
32790;SDS011;19143;59.322;14.502;2024-02-23T10:28:59;4.07;;;0.80;;
32790;SDS011;19143;59.322;14.502;2024-02-23T10:31:25;4.53;;;1.20;;
32790;SDS011;19143;59.322;14.502;2024-02-23T10:33:52;8.30;;;1.30;;
32790;SDS011;19143;59.322;14.502;2024-02-23T10:36:21;4.83;;;1.40;;
32790;SDS011;19143;59.322;14.502;2024-02-23T10:38:48;9.40;;;1.30;;
32790;SDS011;19143;59.322;14.502;2024-02-23T10:41:20;4.60;;;1.30;;
32790;SDS011;19143;59.322;14.502;2024-02-23T10:43:47;4.63;;;1.10;;
32790;SDS011;19143;59.322;14.502;2024-02-23T10:46:15;5.60;;;1.27;;
32790;SDS011;19143;59.322;14.502;2024-02-23T10:48:43;5.20;;;1.27;;
32790;SDS011;19143;59.322;14.502;2024-02-23T10:51:10;2.17;;;1.13;;
32790;SDS011;19143;59.322;14.502;2024-02-23T10:53:36;4.40;;;1.03;;
32790;SDS011;19143;59.322;14.502;2024-02-23T10:56:04;1.93;;;0.93;;
32790;SDS011;19143;59.322;14.502;2024-02-23T10:58:31;4.83;;;1.20;;
32790;SDS011;19143;59.322;14.502;2024-02-23T11:00:58;7.23;;;1.30;;
32790;SDS011;19143;59.322;14.502;2024-02-23T11:03:27;3.67;;;1.30;;
32790;SDS011;19143;59.322;14.502;2024-02-23T11:05:54;4.43;;;1.13;;
32790;SDS011;19143;59.322;14.502;2024-02-23T11:08:20;4.47;;;1.10;;
32790;SDS011;19143;59.322;14.502;2024-02-23T11:10:50;2.17;;;1.10;;
32790;SDS011;19143;59.322;14.502;2024-02-23T11:13:17;2.30;;;0.97;;
32790;SDS011;19143;59.322;14.502;2024-02-23T11:15:44;6.50;;;1.10;;
32790;SDS011;19143;59.322;14.502;2024-02-23T11:18:23;2.83;;;1.07;;
32790;SDS011;19143;59.322;14.502;2024-02-23T11:20:58;6.63;;;1.00;;
32790;SDS011;19143;59.322;14.502;2024-02-23T11:23:25;4.53;;;1.37;;
32790;SDS011;19143;59.322;14.502;2024-02-23T11:26:04;9.60;;;1.23;;
32790;SDS011;19143;59.322;14.502;2024-02-23T11:28:30;4.53;;;1.20;;
32790;SDS011;19143;59.322;14.502;2024-02-23T11:30:57;1.67;;;1.13;;
32790;SDS011;19143;59.322;14.502;2024-02-23T11:33:27;4.53;;;0.83;;
32790;SDS011;19143;59.322;14.502;2024-02-23T11:36:05;4.93;;;1.40;;
32790;SDS011;19143;59.322;14.502;2024-02-23T11:38:32;4.43;;;1.03;;
32790;SDS011;19143;59.322;14.502;2024-02-23T11:41:00;3.63;;;1.33;;
32790;SDS011;19143;59.322;14.502;2024-02-23T11:43:26;4.67;;;1.37;;
32790;SDS011;19143;59.322;14.502;2024-02-23T11:45:53;4.70;;;1.10;;
32790;SDS011;19143;59.322;14.502;2024-02-23T11:48:19;2.50;;;1.60;;
32790;SDS011;19143;59.322;14.502;2024-02-23T11:50:47;2.80;;;0.93;;
32790;SDS011;19143;59.322;14.502;2024-02-23T11:53:15;4.50;;;1.20;;
32790;SDS011;19143;59.322;14.502;2024-02-23T11:55:44;4.40;;;0.90;;
32790;SDS011;19143;59.322;14.502;2024-02-23T11:58:11;2.43;;;1.03;;
32790;SDS011;19143;59.322;14.502;2024-02-23T12:00:37;2.30;;;0.90;;
32790;SDS011;19143;59.322;14.502;2024-02-23T12:03:04;6.83;;;1.37;;
32790;SDS011;19143;59.322;14.502;2024-02-23T12:05:30;4.70;;;1.13;;
32790;SDS011;19143;59.322;14.502;2024-02-23T12:07:57;2.70;;;1.10;;
32790;SDS011;19143;59.322;14.502;2024-02-23T12:10:25;4.30;;;1.33;;
32790;SDS011;19143;59.322;14.502;2024-02-23T12:12:52;5.93;;;1.33;;
32790;SDS011;19143;59.322;14.502;2024-02-23T12:15:18;2.37;;;0.90;;
32790;SDS011;19143;59.322;14.502;2024-02-23T12:17:48;3.20;;;1.00;;
32790;SDS011;19143;59.322;14.502;2024-02-23T12:20:15;4.20;;;1.00;;
32790;SDS011;19143;59.322;14.502;2024-02-23T12:22:41;3.67;;;0.80;;
32790;SDS011;19143;59.322;14.502;2024-02-23T12:25:08;1.80;;;0.60;;
32790;SDS011;19143;59.322;14.502;2024-02-23T12:27:36;4.13;;;0.80;;
32790;SDS011;19143;59.322;14.502;2024-02-23T12:30:02;4.33;;;1.80;;
32790;SDS011;19143;59.322;14.502;2024-02-23T12:32:29;4.57;;;0.90;;
32790;SDS011;19143;59.322;14.502;2024-02-23T12:34:55;1.00;;;0.77;;
32790;SDS011;19143;59.322;14.502;2024-02-23T12:37:22;7.67;;;0.77;;
32790;SDS011;19143;59.322;14.502;2024-02-23T12:39:49;2.83;;;0.90;;
32790;SDS011;19143;59.322;14.502;2024-02-23T12:42:16;4.63;;;0.90;;
32790;SDS011;19143;59.322;14.502;2024-02-23T12:44:44;4.30;;;1.13;;
32790;SDS011;19143;59.322;14.502;2024-02-23T12:47:11;1.70;;;1.03;;
32790;SDS011;19143;59.322;14.502;2024-02-23T12:49:37;0.70;;;0.70;;
32790;SDS011;19143;59.322;14.502;2024-02-23T12:52:04;11.87;;;1.20;;
32790;SDS011;19143;59.322;14.502;2024-02-23T12:54:31;3.30;;;1.00;;
32790;SDS011;19143;59.322;14.502;2024-02-23T12:56:57;4.67;;;1.00;;
32790;SDS011;19143;59.322;14.502;2024-02-23T12:59:23;3.10;;;1.37;;
32790;SDS011;19143;59.322;14.502;2024-02-23T13:01:51;2.23;;;1.00;;
32790;SDS011;19143;59.322;14.502;2024-02-23T13:04:18;4.33;;;1.00;;
32790;SDS011;19143;59.322;14.502;2024-02-23T13:06:44;2.00;;;0.77;;
32790;SDS011;19143;59.322;14.502;2024-02-23T13:09:11;1.23;;;0.77;;
32790;SDS011;19143;59.322;14.502;2024-02-23T13:11:39;8.57;;;1.37;;
32790;SDS011;19143;59.322;14.502;2024-02-23T13:14:06;3.00;;;0.70;;
32790;SDS011;19143;59.322;14.502;2024-02-23T13:16:34;3.27;;;1.13;;
32790;SDS011;19143;59.322;14.502;2024-02-23T13:19:02;2.90;;;1.03;;
32790;SDS011;19143;59.322;14.502;2024-02-23T13:21:28;2.43;;;0.80;;
32790;SDS011;19143;59.322;14.502;2024-02-23T13:23:57;2.27;;;0.60;;
32790;SDS011;19143;59.322;14.502;2024-02-23T13:26:23;7.60;;;1.10;;
32790;SDS011;19143;59.322;14.502;2024-02-23T13:28:50;1.87;;;0.73;;
32790;SDS011;19143;59.322;14.502;2024-02-23T13:31:16;4.57;;;1.10;;
32790;SDS011;19143;59.322;14.502;2024-02-23T13:33:43;4.73;;;1.13;;
32790;SDS011;19143;59.322;14.502;2024-02-23T13:36:11;3.73;;;1.07;;
32790;SDS011;19143;59.322;14.502;2024-02-23T13:38:38;4.10;;;1.10;;
32790;SDS011;19143;59.322;14.502;2024-02-23T13:41:07;2.17;;;1.03;;
32790;SDS011;19143;59.322;14.502;2024-02-23T13:43:34;9.90;;;1.10;;
32790;SDS011;19143;59.322;14.502;2024-02-23T13:46:00;9.70;;;1.10;;
32790;SDS011;19143;59.322;14.502;2024-02-23T13:48:29;8.70;;;1.30;;
32790;SDS011;19143;59.322;14.502;2024-02-23T13:50:55;2.30;;;1.23;;
32790;SDS011;19143;59.322;14.502;2024-02-23T13:53:23;3.73;;;1.00;;
32790;SDS011;19143;59.322;14.502;2024-02-23T13:55:49;5.83;;;1.03;;
32790;SDS011;19143;59.322;14.502;2024-02-23T13:58:16;3.10;;;0.87;;
32790;SDS011;19143;59.322;14.502;2024-02-23T14:00:59;0.83;;;0.70;;
32790;SDS011;19143;59.322;14.502;2024-02-23T14:03:26;1.20;;;0.50;;
32790;SDS011;19143;59.322;14.502;2024-02-23T14:05:53;3.83;;;1.23;;
32790;SDS011;19143;59.322;14.502;2024-02-23T14:08:19;3.30;;;1.03;;
32790;SDS011;19143;59.322;14.502;2024-02-23T14:10:47;3.27;;;0.77;;
32790;SDS011;19143;59.322;14.502;2024-02-23T14:13:14;0.83;;;0.83;;
32790;SDS011;19143;59.322;14.502;2024-02-23T14:15:44;4.63;;;1.13;;
32790;SDS011;19143;59.322;14.502;2024-02-23T14:18:10;1.80;;;1.00;;
32790;SDS011;19143;59.322;14.502;2024-02-23T14:20:37;1.57;;;0.90;;
32790;SDS011;19143;59.322;14.502;2024-02-23T14:23:05;1.23;;;0.90;;
32790;SDS011;19143;59.322;14.502;2024-02-23T14:25:31;2.47;;;0.80;;
32790;SDS011;19143;59.322;14.502;2024-02-23T14:27:59;2.43;;;1.03;;
32790;SDS011;19143;59.322;14.502;2024-02-23T14:30:28;1.53;;;1.03;;